createdAt,value
2023-02-07T00:01:21.571Z,-6.89
2023-02-07T00:03:49.586Z,-6.90
2023-02-07T00:06:22.367Z,-6.82
2023-02-07T00:08:49.923Z,-6.81
2023-02-07T00:11:20.103Z,-6.71
2023-02-07T00:13:50.882Z,-6.71
2023-02-07T00:16:19.427Z,-6.75
2023-02-07T00:18:47.267Z,-6.63
2023-02-07T00:21:17.131Z,-6.67
2023-02-07T00:23:45.757Z,-6.58
2023-02-07T00:26:17.195Z,-6.55
2023-02-07T00:28:45.873Z,-6.58
2023-02-07T00:31:17.171Z,-6.52
2023-02-07T00:33:46.902Z,-6.53
2023-02-07T00:36:17.299Z,-6.48
2023-02-07T00:38:45.387Z,-6.50
2023-02-07T00:41:15.229Z,-6.51
2023-02-07T00:43:42.817Z,-6.50
2023-02-07T00:46:11.022Z,-6.49
2023-02-07T00:48:40.315Z,-6.54
2023-02-07T00:51:08.704Z,-6.59
2023-02-07T00:53:36.392Z,-6.54
2023-02-07T00:56:03.842Z,-6.53
2023-02-07T00:58:31.183Z,-6.51
2023-02-07T01:00:58.631Z,-6.57
2023-02-07T01:03:25.880Z,-6.64
2023-02-07T01:05:54.059Z,-6.69
2023-02-07T01:08:21.347Z,-6.79
2023-02-07T01:10:48.590Z,-6.89
2023-02-07T01:13:16.303Z,-6.94
2023-02-07T01:15:46.753Z,-6.95
2023-02-07T01:18:15.585Z,-6.93
2023-02-07T01:20:42.748Z,-6.90
2023-02-07T01:23:10.689Z,-6.87
2023-02-07T01:25:40.125Z,-6.83
2023-02-07T01:28:07.596Z,-6.92
2023-02-07T01:30:35.040Z,-6.98
2023-02-07T01:33:02.369Z,-6.94
2023-02-07T01:35:29.466Z,-6.80
2023-02-07T01:37:59.199Z,-6.72
2023-02-07T01:40:27.966Z,-6.57
2023-02-07T01:42:55.248Z,-6.55
2023-02-07T01:45:29.721Z,-6.47
2023-02-07T01:48:00.188Z,-6.38
2023-02-07T01:50:27.681Z,-6.38
2023-02-07T01:52:55.324Z,-6.43
2023-02-07T01:55:26.514Z,-6.45
2023-02-07T01:57:54.015Z,-6.44
2023-02-07T02:00:22.139Z,-6.46
2023-02-07T02:02:49.582Z,-6.43
2023-02-07T02:05:18.259Z,-6.40
2023-02-07T02:07:46.685Z,-6.44
2023-02-07T02:10:20.557Z,-6.47
2023-02-07T02:12:58.182Z,-6.47
2023-02-07T02:15:50.338Z,-6.48
2023-02-07T02:18:38.875Z,-6.36
2023-02-07T02:21:43.678Z,-6.33
2023-02-07T02:24:10.632Z,-6.36
2023-02-07T02:27:25.641Z,-6.34
2023-02-07T02:29:54.886Z,-6.15
2023-02-07T02:32:44.134Z,-6.21
2023-02-07T02:35:23.832Z,-6.22
2023-02-07T02:37:58.532Z,-6.16
2023-02-07T02:40:35.312Z,-6.15
2023-02-07T02:43:46.059Z,-6.19
2023-02-07T02:46:21.323Z,-6.22
2023-02-07T02:48:50.215Z,-6.25
2023-02-07T02:51:17.725Z,-6.27
2023-02-07T02:53:55.366Z,-6.32
2023-02-07T02:56:30.021Z,-6.31
2023-02-07T02:59:08.087Z,-6.34
2023-02-07T03:01:36.094Z,-6.34
2023-02-07T03:04:25.732Z,-6.31
2023-02-07T03:07:15.052Z,-6.20
2023-02-07T03:10:02.860Z,-6.20
2023-02-07T03:12:39.063Z,-6.22
2023-02-07T03:15:27.434Z,-6.24
2023-02-07T03:18:01.294Z,-6.28
2023-02-07T03:20:33.287Z,-6.31
2023-02-07T03:23:02.534Z,-6.37
2023-02-07T03:25:31.246Z,-6.35
2023-02-07T03:27:58.811Z,-6.41
2023-02-07T03:30:29.136Z,-6.38
2023-02-07T03:32:59.671Z,-6.37
2023-02-07T03:35:40.821Z,-6.44
2023-02-07T03:38:08.604Z,-6.50
2023-02-07T03:40:43.182Z,-6.52
2023-02-07T03:43:19.965Z,-6.57
2023-02-07T03:45:47.248Z,-6.58
2023-02-07T03:48:14.308Z,-6.61
2023-02-07T03:50:41.471Z,-6.57
2023-02-07T03:53:08.889Z,-6.58
2023-02-07T03:55:36.199Z,-6.66
2023-02-07T03:58:03.724Z,-6.62
2023-02-07T04:00:31.500Z,-6.72
2023-02-07T04:02:58.936Z,-6.76
2023-02-07T04:05:26.152Z,-6.80
2023-02-07T04:07:53.283Z,-6.76
2023-02-07T04:10:20.849Z,-6.80
2023-02-07T04:12:47.853Z,-6.84
2023-02-07T04:15:14.887Z,-6.87
2023-02-07T04:17:42.184Z,-6.90
2023-02-07T04:20:11.043Z,-6.83
2023-02-07T04:22:38.019Z,-6.81
2023-02-07T04:25:05.774Z,-6.84
2023-02-07T04:27:32.776Z,-6.80
2023-02-07T04:29:59.817Z,-6.71
2023-02-07T04:32:27.234Z,-6.78
2023-02-07T04:34:54.259Z,-6.84
2023-02-07T04:37:21.357Z,-6.81
2023-02-07T04:39:48.912Z,-6.80
2023-02-07T04:42:16.158Z,-6.80
2023-02-07T04:44:43.135Z,-6.92
2023-02-07T04:47:10.430Z,-7.04
2023-02-07T04:49:37.473Z,-7.08
2023-02-07T04:52:04.524Z,-7.06
2023-02-07T04:54:31.817Z,-7.04
2023-02-07T04:56:58.827Z,-7.04
2023-02-07T04:59:25.829Z,-6.97
2023-02-07T05:01:53.135Z,-7.01
2023-02-07T05:04:20.190Z,-6.97
2023-02-07T05:06:47.728Z,-7.05
2023-02-07T05:09:15.246Z,-7.06
2023-02-07T05:11:42.254Z,-6.95
2023-02-07T05:14:09.344Z,-6.96
2023-02-07T05:16:36.758Z,-6.92
2023-02-07T05:19:04.110Z,-6.96
2023-02-07T05:21:31.217Z,-6.91
2023-02-07T05:23:58.665Z,-7.00
2023-02-07T05:26:25.898Z,-6.96
2023-02-07T05:28:53.079Z,-6.88
2023-02-07T05:31:21.120Z,-6.85
2023-02-07T05:33:48.258Z,-6.83
2023-02-07T05:36:15.305Z,-6.83
2023-02-07T05:38:42.993Z,-6.84
2023-02-07T05:41:11.122Z,-6.87
2023-02-07T05:43:38.251Z,-6.73
2023-02-07T05:46:05.940Z,-6.78
2023-02-07T05:48:33.032Z,-6.93
2023-02-07T05:51:00.155Z,-6.97
2023-02-07T05:53:27.582Z,-7.01
2023-02-07T05:55:54.685Z,-7.05
2023-02-07T05:58:21.681Z,-7.07
2023-02-07T06:00:49.729Z,-7.06
2023-02-07T06:03:17.386Z,-7.04
2023-02-07T06:05:44.535Z,-7.06
2023-02-07T06:08:11.646Z,-7.01
2023-02-07T06:10:39.110Z,-7.05
2023-02-07T06:13:06.294Z,-6.99
2023-02-07T06:15:33.668Z,-6.94
2023-02-07T06:18:01.157Z,-6.94
2023-02-07T06:20:28.279Z,-6.82
2023-02-07T06:22:55.357Z,-6.86
2023-02-07T06:25:22.803Z,-6.97
2023-02-07T06:27:49.984Z,-6.93
2023-02-07T06:30:17.693Z,-6.88
2023-02-07T06:32:45.373Z,-6.84
2023-02-07T06:35:13.195Z,-6.85
2023-02-07T06:37:40.437Z,-6.88
2023-02-07T06:40:09.747Z,-6.84
2023-02-07T06:42:36.926Z,-6.84
2023-02-07T06:45:04.500Z,-6.71
2023-02-07T06:47:31.795Z,-6.66
2023-02-07T06:49:58.906Z,-6.60
2023-02-07T06:52:26.028Z,-6.51
2023-02-07T06:54:53.370Z,-6.44
2023-02-07T06:57:20.482Z,-6.28
2023-02-07T06:59:47.674Z,-6.14
2023-02-07T07:02:15.246Z,-6.05
2023-02-07T07:04:42.356Z,-5.92
2023-02-07T07:07:09.467Z,-5.97
2023-02-07T07:09:37.657Z,-5.93
2023-02-07T07:12:05.547Z,-5.89
2023-02-07T07:14:32.747Z,-5.94
2023-02-07T07:17:00.579Z,-5.84
2023-02-07T07:19:27.986Z,-5.76
2023-02-07T07:21:55.507Z,-5.66
2023-02-07T07:24:23.217Z,-5.60
2023-02-07T07:26:51.619Z,-5.58
2023-02-07T07:29:19.513Z,-5.43
2023-02-07T07:31:47.315Z,-5.33
2023-02-07T07:34:14.945Z,-5.33
2023-02-07T07:36:42.405Z,-5.26
2023-02-07T07:39:10.677Z,-5.23
2023-02-07T07:41:37.867Z,-5.10
2023-02-07T07:44:05.533Z,-5.09
2023-02-07T07:46:33.626Z,-5.03
2023-02-07T07:49:00.760Z,-4.92
2023-02-07T07:51:28.131Z,-4.87
2023-02-07T07:53:55.690Z,-4.83
2023-02-07T07:56:22.848Z,-4.76
2023-02-07T07:58:50.102Z,-4.75
2023-02-07T08:01:17.589Z,-4.65
2023-02-07T08:03:45.305Z,-4.68
2023-02-07T08:06:12.885Z,-4.68
2023-02-07T08:08:39.952Z,-4.64
2023-02-07T08:11:09.023Z,-4.41
2023-02-07T08:13:36.944Z,-4.34
2023-02-07T08:16:05.223Z,-4.26
2023-02-07T08:18:32.625Z,-4.11
2023-02-07T08:21:01.294Z,-3.99
2023-02-07T08:23:28.320Z,-4.04
2023-02-07T08:25:56.167Z,-3.90
2023-02-07T08:28:23.470Z,-3.92
2023-02-07T08:30:50.539Z,-4.04
2023-02-07T08:33:17.865Z,-3.82
2023-02-07T08:35:45.256Z,-3.90
2023-02-07T08:38:12.650Z,-3.62
2023-02-07T08:40:40.314Z,-3.59
2023-02-07T08:43:12.476Z,-3.50
2023-02-07T08:45:45.657Z,-3.49
2023-02-07T08:48:12.793Z,-3.36
2023-02-07T08:50:40.661Z,-3.23
2023-02-07T08:53:07.922Z,-3.24
2023-02-07T08:55:35.115Z,-3.27
2023-02-07T08:58:02.513Z,-3.14
2023-02-07T09:00:29.524Z,-2.96
2023-02-07T09:02:56.590Z,-3.27
2023-02-07T09:05:24.659Z,-3.21
2023-02-07T09:07:51.703Z,-2.99
2023-02-07T09:10:19.223Z,-2.96
2023-02-07T09:12:46.652Z,-2.76
2023-02-07T09:15:13.659Z,-2.73
2023-02-07T09:17:40.775Z,-2.65
2023-02-07T09:20:08.598Z,-2.63
2023-02-07T09:22:55.643Z,-2.40
2023-02-07T09:25:23.045Z,-2.44
2023-02-07T09:27:50.815Z,-2.29
2023-02-07T09:30:18.085Z,-2.34
2023-02-07T09:32:45.502Z,-2.36
2023-02-07T09:35:13.238Z,-2.29
2023-02-07T09:37:49.351Z,-2.22
2023-02-07T09:40:19.489Z,-2.17
2023-02-07T09:42:59.076Z,-2.01
2023-02-07T09:45:30.214Z,-1.96
2023-02-07T09:48:04.950Z,-1.99
2023-02-07T09:50:35.524Z,-1.74
2023-02-07T09:53:11.176Z,-1.59
2023-02-07T09:55:59.171Z,-1.47
2023-02-07T09:58:29.909Z,-1.32
2023-02-07T10:01:05.464Z,-1.49
2023-02-07T10:03:34.886Z,-1.36
2023-02-07T10:06:17.495Z,-1.20
2023-02-07T10:08:47.661Z,-1.25
2023-02-07T10:11:34.478Z,-1.24
2023-02-07T10:14:24.675Z,-1.00
2023-02-07T10:16:58.172Z,-1.17
2023-02-07T10:19:37.582Z,-1.09
2023-02-07T10:22:22.681Z,-0.92
2023-02-07T10:25:14.662Z,-0.90
2023-02-07T10:27:48.478Z,-0.74
2023-02-07T10:30:21.230Z,-0.82
2023-02-07T10:32:48.669Z,-0.60
2023-02-07T10:35:25.203Z,-0.47
2023-02-07T10:37:54.521Z,-0.51
2023-02-07T10:40:42.899Z,-0.20
2023-02-07T10:43:34.483Z,0.20
2023-02-07T10:46:06.989Z,0.14
2023-02-07T10:48:35.021Z,0.03
2023-02-07T10:51:24.083Z,0.04
2023-02-07T10:54:07.636Z,0.16
2023-02-07T10:56:39.563Z,0.08
2023-02-07T10:59:30.226Z,0.21
2023-02-07T11:01:57.846Z,0.11
2023-02-07T11:04:36.143Z,-0.10
2023-02-07T11:07:06.118Z,-0.07
2023-02-07T11:09:37.685Z,-0.21
2023-02-07T11:12:18.149Z,-0.13
2023-02-07T11:15:01.768Z,-0.05
2023-02-07T11:17:29.451Z,-0.05
2023-02-07T11:19:56.937Z,0.06
2023-02-07T11:22:24.771Z,0.10
2023-02-07T11:24:53.709Z,0.07
2023-02-07T11:27:22.020Z,0.35
2023-02-07T11:29:53.348Z,0.65
2023-02-07T11:32:23.632Z,0.64
2023-02-07T11:34:58.179Z,0.72
2023-02-07T11:37:36.391Z,0.91
2023-02-07T11:40:23.089Z,0.99
2023-02-07T11:42:58.390Z,1.02
2023-02-07T11:45:26.136Z,0.85
2023-02-07T11:47:57.073Z,1.02
2023-02-07T11:50:40.071Z,1.20
2023-02-07T11:53:08.376Z,0.92
2023-02-07T11:55:41.666Z,0.95
2023-02-07T11:58:42.360Z,0.99
2023-02-07T12:01:17.925Z,1.08
2023-02-07T12:04:00.672Z,1.24
2023-02-07T12:06:41.963Z,1.20
2023-02-07T12:09:23.146Z,1.02
2023-02-07T12:11:51.002Z,0.98
2023-02-07T12:14:29.731Z,1.10
2023-02-07T12:16:59.815Z,1.01
2023-02-07T12:19:58.378Z,1.36
2023-02-07T12:22:32.948Z,1.59
2023-02-07T12:25:11.521Z,1.71
2023-02-07T12:27:40.627Z,1.85
2023-02-07T12:30:18.392Z,1.71
2023-02-07T12:33:10.057Z,1.69
2023-02-07T12:35:55.585Z,1.58
2023-02-07T12:38:37.803Z,1.76
2023-02-07T12:41:26.509Z,1.90
2023-02-07T12:44:12.303Z,1.89
2023-02-07T12:46:54.760Z,1.97
2023-02-07T12:49:49.143Z,1.81
2023-02-07T12:52:42.717Z,1.88
2023-02-07T12:55:40.882Z,1.77
2023-02-07T12:58:38.985Z,1.80
2023-02-07T13:01:13.671Z,1.92
2023-02-07T13:04:14.758Z,1.66
2023-02-07T13:06:52.406Z,1.87
2023-02-07T13:09:40.425Z,1.89
2023-02-07T13:12:34.963Z,2.04
2023-02-07T13:15:21.203Z,1.93
2023-02-07T13:18:03.090Z,1.93
2023-02-07T13:21:15.060Z,1.69
2023-02-07T13:23:45.352Z,1.27
2023-02-07T13:26:21.436Z,1.28
2023-02-07T13:29:01.514Z,1.56
2023-02-07T13:31:39.994Z,1.77
2023-02-07T13:34:19.390Z,1.82
2023-02-07T13:36:52.612Z,1.61
2023-02-07T13:39:25.697Z,1.42
2023-02-07T13:42:18.110Z,1.33
2023-02-07T13:45:07.034Z,1.33
2023-02-07T13:47:41.763Z,1.52
2023-02-07T13:50:30.654Z,1.55
2023-02-07T13:53:03.721Z,1.63
2023-02-07T13:55:38.157Z,1.66
2023-02-07T13:58:53.315Z,1.17
2023-02-07T14:01:21.892Z,1.07
2023-02-07T14:04:19.405Z,1.31
2023-02-07T14:07:01.665Z,1.39
2023-02-07T14:09:32.699Z,1.53
2023-02-07T14:12:08.320Z,1.61
2023-02-07T14:14:39.144Z,1.64
2023-02-07T14:17:13.914Z,1.64
2023-02-07T14:19:41.226Z,1.65
2023-02-07T14:22:38.819Z,1.62
2023-02-07T14:25:06.190Z,1.77
2023-02-07T14:27:43.689Z,1.78
2023-02-07T14:30:27.990Z,1.82
2023-02-07T14:33:13.152Z,1.69
2023-02-07T14:36:04.105Z,1.54
2023-02-07T14:38:37.036Z,1.46
2023-02-07T14:41:10.953Z,1.40
2023-02-07T14:44:07.524Z,1.51
2023-02-07T14:46:41.756Z,1.51
2023-02-07T14:49:31.202Z,1.53
2023-02-07T14:52:06.900Z,1.45
2023-02-07T14:54:49.895Z,1.32
2023-02-07T14:57:43.231Z,0.98
2023-02-07T15:00:13.332Z,0.81
2023-02-07T15:03:09.461Z,0.83
2023-02-07T15:06:01.999Z,0.86
2023-02-07T15:08:32.449Z,0.75
2023-02-07T15:11:04.078Z,0.64
2023-02-07T15:13:34.139Z,0.51
2023-02-07T15:16:12.821Z,0.46
2023-02-07T15:18:42.452Z,0.44
2023-02-07T15:21:21.302Z,0.33
2023-02-07T15:23:52.008Z,0.20
2023-02-07T15:26:20.163Z,0.19
2023-02-07T15:28:47.257Z,0.02
2023-02-07T15:31:17.082Z,-0.08
2023-02-07T15:33:46.834Z,-0.11
2023-02-07T15:36:37.242Z,-0.29
2023-02-07T15:39:08.042Z,-0.49
2023-02-07T15:41:35.210Z,-0.63
2023-02-07T15:44:04.492Z,-0.70
2023-02-07T15:46:48.295Z,-0.88
2023-02-07T15:49:25.588Z,-0.99
2023-02-07T15:51:55.468Z,-1.06
2023-02-07T15:54:23.098Z,-1.15
2023-02-07T15:56:58.617Z,-1.25
2023-02-07T15:59:29.113Z,-1.33
2023-02-07T16:01:58.563Z,-1.45
2023-02-07T16:04:27.278Z,-1.51
2023-02-07T16:07:07.880Z,-1.62
2023-02-07T16:09:42.362Z,-1.70
2023-02-07T16:12:45.969Z,-1.79
2023-02-07T16:15:26.418Z,-1.87
2023-02-07T16:17:54.052Z,-1.92
2023-02-07T16:20:21.806Z,-2.00
2023-02-07T16:22:49.142Z,-2.06
2023-02-07T16:25:22.380Z,-2.10
2023-02-07T16:27:52.180Z,-2.22
2023-02-07T16:30:22.177Z,-2.25
2023-02-07T16:32:49.645Z,-2.33
2023-02-07T16:35:19.219Z,-2.39
2023-02-07T16:37:46.371Z,-2.45
2023-02-07T16:40:14.111Z,-2.45
2023-02-07T16:42:42.108Z,-2.49
2023-02-07T16:45:26.805Z,-2.54
2023-02-07T16:47:54.998Z,-2.63
2023-02-07T16:50:24.074Z,-2.69
2023-02-07T16:52:52.612Z,-2.65
2023-02-07T16:55:21.141Z,-2.77
2023-02-07T16:57:51.546Z,-2.86
2023-02-07T17:00:22.145Z,-2.83
2023-02-07T17:02:50.800Z,-2.83
2023-02-07T17:05:19.049Z,-2.86
2023-02-07T17:07:46.857Z,-2.99
2023-02-07T17:10:31.212Z,-3.01
2023-02-07T17:12:58.524Z,-3.05
2023-02-07T17:15:25.986Z,-3.12
2023-02-07T17:17:53.921Z,-3.15
2023-02-07T17:20:29.933Z,-3.20
2023-02-07T17:22:57.630Z,-3.25
2023-02-07T17:25:27.608Z,-3.25
2023-02-07T17:27:55.062Z,-3.24
2023-02-07T17:30:25.925Z,-3.28
2023-02-07T17:32:53.112Z,-3.31
2023-02-07T17:35:21.187Z,-3.46
2023-02-07T17:37:49.392Z,-3.50
2023-02-07T17:40:22.478Z,-3.58
2023-02-07T17:42:50.061Z,-3.70
2023-02-07T17:45:17.562Z,-3.84
2023-02-07T17:47:45.047Z,-3.88
2023-02-07T17:50:18.074Z,-3.93
2023-02-07T17:52:45.862Z,-3.92
2023-02-07T17:55:14.192Z,-3.96
2023-02-07T17:57:41.615Z,-4.05
2023-02-07T18:00:17.368Z,-3.96
2023-02-07T18:02:47.376Z,-3.99
2023-02-07T18:05:15.860Z,-4.02
2023-02-07T18:07:44.083Z,-4.04
2023-02-07T18:10:16.666Z,-4.05
2023-02-07T18:12:44.654Z,-4.04
2023-02-07T18:15:12.548Z,-4.06
2023-02-07T18:17:40.123Z,-4.12
2023-02-07T18:20:11.079Z,-4.12
2023-02-07T18:22:38.490Z,-4.10
2023-02-07T18:25:05.945Z,-4.18
2023-02-07T18:27:34.627Z,-4.15
2023-02-07T18:30:02.666Z,-4.19
2023-02-07T18:32:29.797Z,-4.22
2023-02-07T18:34:56.957Z,-4.15
2023-02-07T18:37:26.101Z,-4.22
2023-02-07T18:39:53.321Z,-4.21
2023-02-07T18:42:21.735Z,-4.19
2023-02-07T18:44:49.171Z,-4.15
2023-02-07T18:47:18.609Z,-4.21
2023-02-07T18:49:46.708Z,-4.22
2023-02-07T18:52:14.836Z,-4.17
2023-02-07T18:54:43.227Z,-4.19
2023-02-07T18:57:11.156Z,-4.18
2023-02-07T18:59:38.820Z,-4.17
2023-02-07T19:02:07.172Z,-4.11
2023-02-07T19:04:34.656Z,-4.07
2023-02-07T19:07:03.724Z,-4.14
2023-02-07T19:09:32.130Z,-4.08
2023-02-07T19:11:59.396Z,-4.12
2023-02-07T19:14:30.604Z,-4.08
2023-02-07T19:16:58.764Z,-4.12
2023-02-07T19:19:28.370Z,-4.18
2023-02-07T19:21:56.469Z,-4.14
2023-02-07T19:24:24.322Z,-4.20
2023-02-07T19:26:54.778Z,-4.19
2023-02-07T19:29:28.710Z,-4.18
2023-02-07T19:31:57.538Z,-4.20
2023-02-07T19:34:25.351Z,-4.21
2023-02-07T19:36:52.813Z,-4.28
2023-02-07T19:39:20.619Z,-4.29
2023-02-07T19:41:48.602Z,-4.30
2023-02-07T19:44:17.240Z,-4.37
2023-02-07T19:46:44.937Z,-4.44
2023-02-07T19:49:13.301Z,-4.49
2023-02-07T19:51:41.076Z,-4.47
2023-02-07T19:54:08.439Z,-4.45
2023-02-07T19:56:36.664Z,-4.42
2023-02-07T19:59:05.959Z,-4.46
2023-02-07T20:01:35.253Z,-4.45
2023-02-07T20:04:03.163Z,-4.42
2023-02-07T20:06:33.006Z,-4.41
2023-02-07T20:09:01.833Z,-4.49
2023-02-07T20:11:29.751Z,-4.42
2023-02-07T20:14:02.786Z,-4.36
2023-02-07T20:16:33.304Z,-4.37
2023-02-07T20:19:01.680Z,-4.32
2023-02-07T20:21:30.606Z,-4.33
2023-02-07T20:23:58.169Z,-4.29
2023-02-07T20:26:31.773Z,-4.37
2023-02-07T20:29:03.460Z,-4.34
2023-02-07T20:31:32.083Z,-4.36
2023-02-07T20:34:00.017Z,-4.35
2023-02-07T20:36:27.474Z,-4.36
2023-02-07T20:38:57.956Z,-4.41
2023-02-07T20:41:30.248Z,-4.28
2023-02-07T20:44:18.927Z,-4.34
2023-02-07T20:46:48.951Z,-4.28
2023-02-07T20:49:19.637Z,-4.21
2023-02-07T20:51:51.896Z,-4.28
2023-02-07T20:54:21.467Z,-4.27
2023-02-07T20:56:49.209Z,-4.26
2023-02-07T20:59:18.875Z,-4.29
2023-02-07T21:01:46.647Z,-4.38
2023-02-07T21:04:14.214Z,-4.36
2023-02-07T21:06:44.817Z,-4.34
2023-02-07T21:09:12.915Z,-4.42
2023-02-07T21:11:43.205Z,-4.45
2023-02-07T21:14:28.932Z,-4.50
2023-02-07T21:16:59.029Z,-4.44
2023-02-07T21:19:26.111Z,-4.39
2023-02-07T21:21:55.088Z,-4.35
2023-02-07T21:24:22.695Z,-4.25
2023-02-07T21:26:51.443Z,-4.28
2023-02-07T21:29:19.419Z,-4.31
2023-02-07T21:31:47.242Z,-4.28
2023-02-07T21:34:16.543Z,-4.24
2023-02-07T21:36:45.067Z,-4.30
2023-02-07T21:39:12.505Z,-4.24
2023-02-07T21:41:42.408Z,-4.24
2023-02-07T21:44:10.542Z,-4.22
2023-02-07T21:46:40.162Z,-4.27
2023-02-07T21:49:16.032Z,-4.29
2023-02-07T21:51:45.581Z,-4.30
2023-02-07T21:54:12.616Z,-4.26
2023-02-07T21:56:41.435Z,-4.24
2023-02-07T21:59:13.026Z,-4.24
2023-02-07T22:01:40.368Z,-4.23
2023-02-07T22:04:10.401Z,-4.26
2023-02-07T22:06:38.690Z,-4.23
2023-02-07T22:09:05.797Z,-4.18
2023-02-07T22:11:34.943Z,-4.06
2023-02-07T22:14:02.647Z,-4.08
2023-02-07T22:16:30.855Z,-3.98
2023-02-07T22:18:59.698Z,-3.93
2023-02-07T22:21:35.446Z,-4.02
2023-02-07T22:24:04.201Z,-4.12
2023-02-07T22:26:32.938Z,-4.18
2023-02-07T22:28:59.990Z,-4.17
2023-02-07T22:31:29.983Z,-4.13
2023-02-07T22:34:00.441Z,-4.16
2023-02-07T22:36:30.290Z,-4.24
2023-02-07T22:38:58.819Z,-4.34
2023-02-07T22:41:26.156Z,-4.36
2023-02-07T22:43:53.598Z,-4.44
2023-02-07T22:46:22.262Z,-4.50
2023-02-07T22:48:52.433Z,-4.48
2023-02-07T22:51:21.196Z,-4.46
2023-02-07T22:53:49.352Z,-4.44
2023-02-07T22:56:16.879Z,-4.40
2023-02-07T22:58:44.487Z,-4.46
2023-02-07T23:01:22.645Z,-4.42
2023-02-07T23:03:50.889Z,-4.42
2023-02-07T23:06:18.934Z,-4.39
2023-02-07T23:08:45.960Z,-4.44
2023-02-07T23:11:15.018Z,-4.36
2023-02-07T23:13:42.281Z,-4.35
2023-02-07T23:16:17.473Z,-4.37
2023-02-07T23:18:45.033Z,-4.34
2023-02-07T23:21:14.166Z,-4.28
2023-02-07T23:23:41.398Z,-4.25
2023-02-07T23:26:10.320Z,-4.34
2023-02-07T23:28:38.431Z,-4.43
2023-02-07T23:31:11.047Z,-4.41
2023-02-07T23:33:38.409Z,-4.47
2023-02-07T23:36:06.462Z,-4.50
2023-02-07T23:38:34.091Z,-4.53
2023-02-07T23:41:01.619Z,-4.56
2023-02-07T23:43:28.740Z,-4.58
2023-02-07T23:45:55.864Z,-4.58
2023-02-07T23:48:23.202Z,-4.61
2023-02-07T23:50:55.039Z,-4.61
2023-02-07T23:53:22.828Z,-4.61
2023-02-07T23:55:50.714Z,-4.71
2023-02-07T23:58:17.886Z,-4.62
